createdAt,value
2022-10-16T00:00:56.415Z,16.79
2022-10-16T00:01:56.438Z,16.73
2022-10-16T00:02:56.406Z,16.79
2022-10-16T00:03:56.418Z,16.79
2022-10-16T00:04:56.412Z,16.85
2022-10-16T00:05:56.413Z,16.85
2022-10-16T00:06:56.397Z,16.81
2022-10-16T00:07:56.409Z,16.78
2022-10-16T00:08:56.446Z,16.82
2022-10-16T00:09:56.411Z,16.81
2022-10-16T00:10:56.430Z,16.83
2022-10-16T00:11:56.409Z,16.89
2022-10-16T00:12:56.407Z,16.85
2022-10-16T00:13:56.418Z,16.83
2022-10-16T00:14:56.417Z,16.81
2022-10-16T00:15:56.430Z,16.82
2022-10-16T00:16:56.414Z,16.89
2022-10-16T00:18:04.932Z,16.81
2022-10-16T00:18:56.425Z,16.88
2022-10-16T00:19:56.434Z,16.89
2022-10-16T00:21:56.443Z,16.81
2022-10-16T00:22:56.429Z,16.81
2022-10-16T00:24:04.939Z,16.78
2022-10-16T00:25:06.506Z,16.81
2022-10-16T00:25:56.420Z,16.82
2022-10-16T00:27:03.982Z,16.82
2022-10-16T00:27:56.420Z,16.85
2022-10-16T00:29:06.504Z,16.93
2022-10-16T00:30:04.522Z,16.82
2022-10-16T00:30:56.431Z,16.83
2022-10-16T00:32:03.986Z,16.94
2022-10-16T00:33:04.569Z,16.97
2022-10-16T00:33:56.438Z,16.85
2022-10-16T00:35:04.643Z,16.93
2022-10-16T00:35:56.443Z,16.93
2022-10-16T00:37:03.995Z,16.93
2022-10-16T00:38:04.664Z,16.96
2022-10-16T00:38:56.553Z,16.82
2022-10-16T00:40:04.694Z,16.91
2022-10-16T00:40:56.423Z,16.94
2022-10-16T00:41:56.452Z,16.91
2022-10-16T00:43:04.717Z,16.88
2022-10-16T00:43:56.418Z,16.93
2022-10-16T00:45:04.715Z,16.89
2022-10-16T00:45:56.425Z,16.91
2022-10-16T00:46:56.452Z,16.98
2022-10-16T00:47:56.502Z,16.88
2022-10-16T00:49:04.746Z,16.91
2022-10-16T00:49:56.429Z,16.91
2022-10-16T00:51:04.052Z,17.04
2022-10-16T00:51:56.443Z,16.98
2022-10-16T00:52:56.447Z,17.00
2022-10-16T00:53:56.433Z,17.00
2022-10-16T00:54:56.435Z,17.03
2022-10-16T00:55:56.435Z,17.00
2022-10-16T00:56:56.442Z,16.94
2022-10-16T00:57:56.422Z,16.96
2022-10-16T00:58:56.436Z,17.04
2022-10-16T00:59:56.437Z,17.00
2022-10-16T01:00:56.517Z,17.07
2022-10-16T01:01:56.442Z,17.03
2022-10-16T01:02:56.469Z,17.04
2022-10-16T01:03:56.435Z,17.04
2022-10-16T01:04:56.439Z,17.01
2022-10-16T01:05:56.453Z,16.94
2022-10-16T01:06:56.429Z,17.03
2022-10-16T01:07:56.431Z,16.97
2022-10-16T01:08:56.461Z,16.93
2022-10-16T01:09:56.450Z,16.96
2022-10-16T01:10:56.442Z,16.94
2022-10-16T01:11:56.467Z,17.00
2022-10-16T01:12:56.435Z,16.93
2022-10-16T01:13:56.456Z,16.96
2022-10-16T01:14:56.447Z,17.06
2022-10-16T01:15:56.442Z,17.00
2022-10-16T01:16:56.472Z,16.96
2022-10-16T01:17:56.447Z,17.03
2022-10-16T01:18:56.473Z,17.08
2022-10-16T01:19:56.451Z,17.00
2022-10-16T01:20:56.447Z,17.04
2022-10-16T01:21:56.457Z,16.93
2022-10-16T01:22:56.458Z,16.89
2022-10-16T01:23:56.460Z,17.04
2022-10-16T01:24:56.473Z,17.04
2022-10-16T01:25:56.446Z,17.03
2022-10-16T02:08:21.982Z,16.76
2022-10-16T02:09:21.993Z,16.75
2022-10-16T02:10:22.007Z,16.78
2022-10-16T02:11:22.560Z,16.73
2022-10-16T02:12:21.974Z,16.68
2022-10-16T02:13:21.976Z,16.70
2022-10-16T02:14:22.003Z,16.71
2022-10-16T02:15:21.993Z,16.73
2022-10-16T02:16:21.975Z,16.73
2022-10-16T02:17:21.986Z,16.78
2022-10-16T02:18:21.986Z,16.81
2022-10-16T02:19:21.993Z,16.75
2022-10-16T02:20:21.989Z,16.75
2022-10-16T02:21:21.980Z,16.75
2022-10-16T02:22:21.978Z,16.70
2022-10-16T02:23:21.998Z,16.76
2022-10-16T02:24:21.990Z,16.78
2022-10-16T02:25:21.988Z,16.81
2022-10-16T02:26:21.997Z,16.81
2022-10-16T02:27:21.985Z,16.78
2022-10-16T02:28:22.015Z,16.71
2022-10-16T02:29:21.995Z,16.81
2022-10-16T02:30:22.004Z,16.76
2022-10-16T02:31:22.009Z,16.78
2022-10-16T02:32:22.021Z,16.79
2022-10-16T02:33:21.990Z,16.78
2022-10-16T02:34:21.995Z,16.76
2022-10-16T02:35:22.006Z,16.71
2022-10-16T02:36:21.994Z,16.76
2022-10-16T02:37:21.996Z,16.82
2022-10-16T02:38:22.006Z,16.78
2022-10-16T02:39:21.996Z,16.78
2022-10-16T02:40:24.493Z,16.71
2022-10-16T02:41:22.024Z,16.79
2022-10-16T02:42:22.003Z,16.76
2022-10-16T02:43:22.015Z,16.78
2022-10-16T02:44:22.022Z,16.79
2022-10-16T02:45:22.018Z,16.79
2022-10-16T02:46:22.019Z,16.78
2022-10-16T02:47:22.016Z,16.76
2022-10-16T02:48:22.028Z,16.81
2022-10-16T02:49:22.035Z,16.79
2022-10-16T02:50:22.028Z,16.76
2022-10-16T02:51:22.029Z,16.78
2022-10-16T02:52:22.024Z,16.75
2022-10-16T02:53:22.018Z,16.81
2022-10-16T02:54:22.019Z,16.78
2022-10-16T02:55:22.016Z,16.78
2022-10-16T02:56:22.038Z,16.70
2022-10-16T02:57:22.018Z,16.76
2022-10-16T02:58:22.037Z,16.73
2022-10-16T02:59:22.036Z,16.70
2022-10-16T03:00:22.046Z,16.75
2022-10-16T03:01:22.128Z,16.70
2022-10-16T03:02:22.036Z,16.75
2022-10-16T03:03:22.030Z,16.75
2022-10-16T03:04:22.065Z,16.75
2022-10-16T03:06:22.054Z,16.71
2022-10-16T03:07:22.048Z,16.61
2022-10-16T03:08:22.056Z,16.73
2022-10-16T03:09:22.047Z,16.67
2022-10-16T03:10:22.049Z,16.64
2022-10-16T03:11:22.049Z,16.73
2022-10-16T03:12:22.038Z,16.64
2022-10-16T03:13:22.046Z,16.60
2022-10-16T03:14:22.122Z,16.67
2022-10-16T03:15:22.085Z,16.68
2022-10-16T03:16:22.049Z,16.61
2022-10-16T03:17:22.054Z,16.63
2022-10-16T03:18:22.046Z,16.61
2022-10-16T03:19:22.057Z,16.70
2022-10-16T03:20:22.042Z,16.70
2022-10-16T03:21:22.074Z,16.64
2022-10-16T03:22:22.054Z,16.58
2022-10-16T03:23:22.092Z,16.60
2022-10-16T03:24:22.064Z,16.64
2022-10-16T03:25:22.068Z,16.57
2022-10-16T03:26:22.083Z,16.53
2022-10-16T03:27:22.051Z,16.53
2022-10-16T03:28:22.105Z,16.56
2022-10-16T03:29:22.061Z,16.56
2022-10-16T03:30:22.053Z,16.46
2022-10-16T03:31:22.075Z,16.43
2022-10-16T03:32:22.168Z,16.41
2022-10-16T03:33:22.059Z,16.52
2022-10-16T03:34:22.068Z,16.39
2022-10-16T03:35:22.066Z,16.49
2022-10-16T03:36:22.076Z,16.43
2022-10-16T03:37:22.087Z,16.50
2022-10-16T03:38:22.096Z,16.45
2022-10-16T03:39:22.072Z,16.42
2022-10-16T03:40:22.078Z,16.42
2022-10-16T03:41:22.061Z,16.31
2022-10-16T03:42:22.063Z,16.39
2022-10-16T03:43:22.076Z,16.34
2022-10-16T03:44:22.080Z,16.33
2022-10-16T03:45:22.089Z,16.30
2022-10-16T03:46:22.078Z,16.28
2022-10-16T03:47:22.078Z,16.25
2022-10-16T03:48:22.069Z,16.30
2022-10-16T03:49:22.095Z,16.33
2022-10-16T03:50:22.069Z,16.31
2022-10-16T03:51:22.101Z,16.34
2022-10-16T03:52:22.090Z,16.34
2022-10-16T03:53:22.079Z,16.31
2022-10-16T03:54:22.085Z,16.27
2022-10-16T03:55:22.086Z,16.35
2022-10-16T03:56:22.084Z,16.38
2022-10-16T03:57:22.105Z,16.33
2022-10-16T03:58:22.077Z,16.38
2022-10-16T03:59:22.100Z,16.31
2022-10-16T04:00:22.093Z,16.27
2022-10-16T04:01:22.114Z,16.33
2022-10-16T04:02:22.101Z,16.30
2022-10-16T04:03:22.090Z,16.20
2022-10-16T04:04:22.087Z,16.23
2022-10-16T04:05:22.094Z,16.20
2022-10-16T04:06:22.085Z,16.28
2022-10-16T04:07:22.094Z,16.30
2022-10-16T04:08:22.108Z,16.30
2022-10-16T04:09:22.116Z,16.20
2022-10-16T04:10:22.086Z,16.25
2022-10-16T04:11:22.101Z,16.20
2022-10-16T04:12:22.102Z,16.20
2022-10-16T04:13:22.128Z,16.17
2022-10-16T04:14:22.108Z,16.21
2022-10-16T04:15:22.110Z,16.20
2022-10-16T04:16:22.092Z,16.21
2022-10-16T04:17:22.100Z,16.15
2022-10-16T04:18:22.134Z,16.11
2022-10-16T04:19:22.110Z,16.17
2022-10-16T04:20:22.098Z,16.17
2022-10-16T04:21:22.102Z,16.09
2022-10-16T04:22:22.148Z,16.17
2022-10-16T04:23:22.129Z,16.20
2022-10-16T04:24:22.108Z,16.15
2022-10-16T04:25:22.120Z,16.14
2022-10-16T04:26:22.105Z,16.11
2022-10-16T04:27:22.137Z,16.08
2022-10-16T04:28:22.137Z,16.08
2022-10-16T04:29:22.132Z,16.05
2022-10-16T04:30:22.130Z,16.08
2022-10-16T04:31:22.128Z,16.09
2022-10-16T04:32:22.126Z,16.05
2022-10-16T04:33:22.123Z,16.11
2022-10-16T04:34:22.142Z,16.12
2022-10-16T04:35:22.118Z,16.07
2022-10-16T04:36:24.306Z,16.08
2022-10-16T04:37:22.115Z,16.01
2022-10-16T04:38:22.115Z,15.96
2022-10-16T04:39:22.135Z,16.04
2022-10-16T04:40:22.125Z,16.01
2022-10-16T04:41:22.117Z,15.97
2022-10-16T04:42:22.124Z,16.00
2022-10-16T04:43:22.168Z,16.01
2022-10-16T04:44:22.157Z,15.97
2022-10-16T04:45:22.153Z,15.93
2022-10-16T04:46:22.120Z,15.96
2022-10-16T04:47:22.141Z,15.94
2022-10-16T04:48:22.131Z,15.96
2022-10-16T04:49:22.131Z,16.00
2022-10-16T04:50:22.125Z,15.87
2022-10-16T04:51:22.135Z,15.84
2022-10-16T04:52:22.177Z,15.86
2022-10-16T04:53:22.126Z,15.86
2022-10-16T04:54:22.144Z,15.86
2022-10-16T04:55:22.128Z,15.87
2022-10-16T04:56:22.158Z,15.78
2022-10-16T04:57:22.141Z,15.82
2022-10-16T04:58:22.132Z,15.76
2022-10-16T04:59:22.148Z,15.75
2022-10-16T05:00:22.156Z,15.76
2022-10-16T05:01:22.140Z,15.78
2022-10-16T05:02:22.174Z,15.69
2022-10-16T05:03:22.255Z,15.75
2022-10-16T05:04:22.138Z,15.72
2022-10-16T05:05:22.143Z,15.62
2022-10-16T05:06:22.132Z,15.62
2022-10-16T05:07:22.169Z,15.69
2022-10-16T05:08:22.142Z,15.72
2022-10-16T05:09:22.162Z,15.67
2022-10-16T05:10:22.147Z,15.64
2022-10-16T05:11:22.160Z,15.54
2022-10-16T05:12:22.145Z,15.57
2022-10-16T05:13:22.169Z,15.54
2022-10-16T05:14:22.161Z,15.43
2022-10-16T05:15:22.162Z,15.50
2022-10-16T05:16:22.158Z,15.43
2022-10-16T05:17:22.140Z,15.46
2022-10-16T05:18:22.165Z,15.41
2022-10-16T05:19:27.338Z,15.43
2022-10-16T05:20:22.174Z,15.46
2022-10-16T05:21:22.166Z,15.34
2022-10-16T05:22:22.142Z,15.34
2022-10-16T05:23:22.146Z,15.38
2022-10-16T05:24:22.173Z,15.31
2022-10-16T05:25:22.147Z,15.43
2022-10-16T05:26:22.170Z,15.34
2022-10-16T05:27:22.155Z,15.35
2022-10-16T05:28:22.194Z,15.35
2022-10-16T05:29:22.173Z,15.43
2022-10-16T05:30:22.161Z,15.41
2022-10-16T05:31:22.159Z,15.35
2022-10-16T05:32:22.166Z,15.35
2022-10-16T05:33:22.162Z,15.35
2022-10-16T05:34:22.163Z,15.35
2022-10-16T05:35:22.160Z,15.39
2022-10-16T05:36:22.197Z,15.43
2022-10-16T05:37:22.177Z,15.35
2022-10-16T05:38:22.171Z,15.43
2022-10-16T05:39:22.175Z,15.36
2022-10-16T05:40:22.164Z,15.31
2022-10-16T05:41:22.155Z,15.41
2022-10-16T05:42:22.171Z,15.29
2022-10-16T05:43:22.160Z,15.31
2022-10-16T05:44:22.223Z,15.31
2022-10-16T05:45:22.165Z,15.20
2022-10-16T05:46:22.161Z,15.31
2022-10-16T05:47:22.170Z,15.39
2022-10-16T05:48:22.166Z,15.36
2022-10-16T05:49:22.178Z,15.44
2022-10-16T05:50:22.165Z,15.35
2022-10-16T05:51:22.171Z,15.34
2022-10-16T05:52:22.163Z,15.36
2022-10-16T05:53:22.178Z,15.29
2022-10-16T05:54:22.178Z,15.31
2022-10-16T05:55:22.164Z,15.29
2022-10-16T05:56:22.167Z,15.31
2022-10-16T05:57:22.173Z,15.31
2022-10-16T05:58:22.172Z,15.36
2022-10-16T05:59:22.185Z,15.23
2022-10-16T06:00:22.171Z,15.36
2022-10-16T06:01:22.246Z,15.34
2022-10-16T06:02:22.170Z,15.32
2022-10-16T06:03:22.162Z,15.32
2022-10-16T06:04:22.183Z,15.35
2022-10-16T06:05:22.162Z,15.34
2022-10-16T06:06:22.174Z,15.35
2022-10-16T06:07:22.181Z,15.39
2022-10-16T06:08:22.178Z,15.34
2022-10-16T06:09:22.182Z,15.35
2022-10-16T06:10:22.182Z,15.35
2022-10-16T06:11:22.179Z,15.34
2022-10-16T06:12:22.181Z,15.35
2022-10-16T06:13:22.173Z,15.34
2022-10-16T06:14:22.166Z,15.41
2022-10-16T06:15:22.186Z,15.39
2022-10-16T06:16:22.171Z,15.46
2022-10-16T06:17:22.193Z,15.49
2022-10-16T06:18:29.223Z,15.47
2022-10-16T06:19:22.169Z,15.43
2022-10-16T06:20:22.208Z,15.39
2022-10-16T06:21:22.209Z,15.38
2022-10-16T06:22:22.169Z,15.50
2022-10-16T06:23:22.182Z,15.54
2022-10-16T06:24:22.180Z,15.51
2022-10-16T06:25:22.168Z,15.54
2022-10-16T06:26:22.178Z,15.54
2022-10-16T06:27:22.182Z,15.49
2022-10-16T06:28:22.221Z,15.51
2022-10-16T06:29:22.166Z,15.57
2022-10-16T06:30:22.186Z,15.64
2022-10-16T06:31:22.214Z,15.60
2022-10-16T06:32:22.171Z,15.69
2022-10-16T06:33:22.166Z,15.67
2022-10-16T06:34:22.168Z,15.69
2022-10-16T06:35:22.184Z,15.67
2022-10-16T06:36:22.168Z,15.71
2022-10-16T06:37:22.198Z,15.71
2022-10-16T06:38:22.188Z,15.76
2022-10-16T06:39:22.181Z,15.74
2022-10-16T06:40:22.171Z,15.75
2022-10-16T06:41:22.172Z,15.80
2022-10-16T06:42:22.175Z,15.78
2022-10-16T06:43:22.199Z,15.76
2022-10-16T06:44:22.195Z,15.74
2022-10-16T06:45:22.174Z,15.82
2022-10-16T06:46:22.197Z,15.83
2022-10-16T06:47:22.179Z,15.76
2022-10-16T06:48:22.187Z,15.76
2022-10-16T06:49:22.192Z,15.89
2022-10-16T06:50:22.198Z,15.93
2022-10-16T06:51:22.176Z,15.84
2022-10-16T06:52:22.200Z,15.84
2022-10-16T06:53:22.207Z,15.78
2022-10-16T06:54:22.190Z,15.89
2022-10-16T06:55:22.178Z,15.84
2022-10-16T06:56:22.189Z,15.94
2022-10-16T06:57:22.176Z,15.96
2022-10-16T06:58:22.192Z,16.02
2022-10-16T06:59:22.202Z,15.92
2022-10-16T07:00:22.184Z,16.00
2022-10-16T07:01:22.204Z,16.01
2022-10-16T07:02:22.183Z,16.08
2022-10-16T07:03:22.189Z,16.09
2022-10-16T07:04:22.190Z,16.21
2022-10-16T07:05:22.193Z,16.45
2022-10-16T07:06:22.187Z,16.53
2022-10-16T07:07:22.193Z,16.61
2022-10-16T07:08:22.201Z,16.79
2022-10-16T07:09:22.228Z,16.91
2022-10-16T07:10:22.197Z,16.91
2022-10-16T07:11:22.196Z,16.81
2022-10-16T07:12:22.207Z,16.91
2022-10-16T07:13:22.211Z,16.97
2022-10-16T07:14:22.201Z,17.06
2022-10-16T07:15:22.198Z,16.97
2022-10-16T07:16:22.201Z,17.04
2022-10-16T07:17:22.221Z,17.04
2022-10-16T07:18:22.263Z,16.94
2022-10-16T07:19:22.197Z,16.91
2022-10-16T07:20:22.195Z,17.01
2022-10-16T07:21:22.214Z,17.11
2022-10-16T07:22:22.217Z,17.23
2022-10-16T07:23:22.205Z,17.34
2022-10-16T07:24:22.222Z,17.36
2022-10-16T07:25:22.206Z,17.31
2022-10-16T07:26:22.210Z,17.48
2022-10-16T07:27:22.195Z,17.58
2022-10-16T07:28:22.286Z,17.75
2022-10-16T07:29:22.234Z,17.77
2022-10-16T07:30:22.211Z,18.21
2022-10-16T07:31:22.213Z,18.23
2022-10-16T07:32:22.218Z,18.30
2022-10-16T07:33:22.227Z,18.52
2022-10-16T07:34:22.228Z,18.48
2022-10-16T07:35:22.209Z,18.37
2022-10-16T07:36:22.224Z,18.29
2022-10-16T07:37:22.243Z,18.29
2022-10-16T07:38:22.216Z,18.07
2022-10-16T07:39:22.233Z,17.99
2022-10-16T07:40:22.218Z,17.95
2022-10-16T07:41:22.211Z,17.93
2022-10-16T07:42:22.216Z,17.97
2022-10-16T07:43:22.232Z,17.92
2022-10-16T07:44:22.233Z,17.93
2022-10-16T07:45:22.242Z,17.84
2022-10-16T07:46:22.225Z,17.86
2022-10-16T07:47:22.232Z,17.82
2022-10-16T07:48:22.224Z,17.79
2022-10-16T07:49:22.243Z,17.77
2022-10-16T07:50:22.280Z,17.72
2022-10-16T07:51:22.256Z,17.74
2022-10-16T07:52:22.230Z,17.74
2022-10-16T07:53:24.855Z,17.71
2022-10-16T07:54:22.231Z,17.77
2022-10-16T07:55:22.235Z,17.74
2022-10-16T07:56:22.268Z,17.77
2022-10-16T07:57:22.245Z,17.70
2022-10-16T07:58:22.259Z,17.75
2022-10-16T08:01:00.526Z,17.68
2022-10-16T08:01:53.866Z,17.70
2022-10-16T08:02:53.826Z,17.71
2022-10-16T08:03:53.951Z,17.66
2022-10-16T08:04:53.838Z,17.77
2022-10-16T08:05:53.832Z,17.77
2022-10-16T08:06:53.833Z,17.68
2022-10-16T08:07:53.856Z,17.59
2022-10-16T08:08:53.832Z,17.70
2022-10-16T08:09:53.847Z,17.63
2022-10-16T08:10:53.850Z,17.74
2022-10-16T08:11:54.314Z,17.79
2022-10-16T08:12:53.849Z,17.71
2022-10-16T08:13:53.840Z,17.75
2022-10-16T08:14:53.878Z,17.75
2022-10-16T08:15:53.848Z,17.78
2022-10-16T08:16:53.845Z,17.78
2022-10-16T08:17:53.863Z,17.77
2022-10-16T08:18:53.858Z,17.82
2022-10-16T08:19:53.844Z,17.89
2022-10-16T08:20:53.865Z,17.93
2022-10-16T08:21:53.866Z,17.95
2022-10-16T08:22:53.866Z,17.97
2022-10-16T08:23:58.072Z,18.00
2022-10-16T08:24:53.853Z,17.97
2022-10-16T08:25:53.861Z,18.02
2022-10-16T08:26:53.868Z,18.11
2022-10-16T08:27:53.859Z,18.03
2022-10-16T08:28:53.911Z,18.08
2022-10-16T08:29:53.879Z,18.25
2022-10-16T08:30:53.864Z,18.25
2022-10-16T08:31:53.885Z,18.32
2022-10-16T08:32:53.866Z,18.35
2022-10-16T08:33:53.915Z,18.47
2022-10-16T08:34:53.879Z,18.44
2022-10-16T08:35:53.868Z,18.51
2022-10-16T08:36:53.878Z,18.57
2022-10-16T08:37:53.895Z,18.65
2022-10-16T08:38:53.880Z,18.63
2022-10-16T08:39:53.902Z,18.63
2022-10-16T08:40:53.951Z,18.60
2022-10-16T08:41:53.896Z,18.62
2022-10-16T08:42:53.886Z,18.69
2022-10-16T08:43:53.880Z,18.69
2022-10-16T08:44:53.911Z,18.67
2022-10-16T08:45:53.894Z,18.55
2022-10-16T08:46:53.893Z,18.57
2022-10-16T08:47:53.915Z,18.60
2022-10-16T08:48:53.905Z,18.60
2022-10-16T08:49:53.901Z,18.51
2022-10-16T08:50:53.895Z,18.50
2022-10-16T08:51:53.897Z,18.47
2022-10-16T08:52:53.911Z,18.48
2022-10-16T08:53:54.016Z,18.51
2022-10-16T08:54:53.912Z,18.48
2022-10-16T08:55:53.931Z,18.47
2022-10-16T08:56:53.911Z,18.47
2022-10-16T08:57:54.023Z,18.50
2022-10-16T08:58:56.631Z,18.47
2022-10-16T08:59:53.922Z,18.54
2022-10-16T09:00:53.997Z,18.57
2022-10-16T09:01:53.935Z,18.47
2022-10-16T09:02:53.975Z,18.45
2022-10-16T09:03:53.951Z,18.67
2022-10-16T09:04:56.649Z,18.72
2022-10-16T09:05:53.921Z,19.06
2022-10-16T09:06:53.926Z,19.43
2022-10-16T09:07:54.085Z,19.83
2022-10-16T09:08:53.945Z,20.13
2022-10-16T09:09:53.947Z,20.57
2022-10-16T09:10:53.934Z,20.54
2022-10-16T09:11:53.950Z,20.73
2022-10-16T09:12:53.957Z,20.92
2022-10-16T09:13:53.964Z,20.94
2022-10-16T09:14:53.950Z,20.77
2022-10-16T09:15:53.946Z,20.54
2022-10-16T09:16:53.953Z,20.43
2022-10-16T09:17:53.963Z,20.28
2022-10-16T09:18:53.967Z,20.18
2022-10-16T09:19:53.987Z,20.11
2022-10-16T09:20:53.977Z,20.10
2022-10-16T09:21:53.972Z,20.17
2022-10-16T09:22:53.985Z,20.10
2022-10-16T09:23:54.004Z,20.13
2022-10-16T09:24:53.989Z,19.99
2022-10-16T09:25:53.993Z,20.08
2022-10-16T09:26:53.999Z,20.06
2022-10-16T09:27:53.987Z,20.10
2022-10-16T09:28:54.059Z,20.02
2022-10-16T09:29:58.798Z,20.17
2022-10-16T09:30:54.020Z,20.05
2022-10-16T09:31:54.012Z,20.17
2022-10-16T09:32:54.008Z,20.16
2022-10-16T09:33:54.019Z,20.29
2022-10-16T09:34:54.041Z,20.43
2022-10-16T09:35:54.027Z,20.42
2022-10-16T09:36:54.018Z,20.43
2022-10-16T09:37:54.045Z,20.43
2022-10-16T09:38:54.034Z,20.38
2022-10-16T09:39:54.062Z,20.36
2022-10-16T09:40:58.950Z,20.38
2022-10-16T09:41:54.064Z,20.35
2022-10-16T09:42:54.045Z,20.43
2022-10-16T09:43:54.040Z,20.36
2022-10-16T09:44:54.076Z,20.55
2022-10-16T09:45:54.054Z,20.50
2022-10-16T09:46:54.054Z,20.32
2022-10-16T09:47:57.021Z,20.26
2022-10-16T09:48:54.069Z,20.28
2022-10-16T09:49:54.065Z,20.24
2022-10-16T09:50:54.076Z,20.32
2022-10-16T09:51:54.078Z,20.24
2022-10-16T09:52:54.066Z,20.24
2022-10-16T09:54:54.096Z,20.17
2022-10-16T09:55:54.103Z,20.16
2022-10-16T09:56:54.108Z,20.16
2022-10-16T09:57:54.100Z,20.23
2022-10-16T09:58:54.110Z,20.28
2022-10-16T09:59:54.119Z,20.21
2022-10-16T10:00:54.097Z,20.29
2022-10-16T10:01:54.133Z,20.47
2022-10-16T10:03:54.123Z,20.66
2022-10-16T10:04:54.126Z,20.61
2022-10-16T10:05:57.298Z,20.61
2022-10-16T10:06:54.130Z,20.66
2022-10-16T10:07:54.135Z,20.72
2022-10-16T10:08:54.126Z,20.80
2022-10-16T10:09:54.132Z,20.77
2022-10-16T10:10:54.125Z,20.82
2022-10-16T10:11:54.204Z,20.82
2022-10-16T10:12:54.952Z,20.87
2022-10-16T10:13:54.146Z,20.88
2022-10-16T10:14:54.156Z,20.91
2022-10-16T10:15:54.160Z,20.79
2022-10-16T10:16:54.158Z,20.84
2022-10-16T10:17:54.176Z,20.85
2022-10-16T10:18:54.179Z,20.87
2022-10-16T10:19:54.170Z,20.89
2022-10-16T10:20:54.338Z,20.84
2022-10-16T10:21:54.172Z,20.94
2022-10-16T10:22:54.185Z,20.94
2022-10-16T10:23:54.186Z,20.82
2022-10-16T10:24:54.188Z,20.91
2022-10-16T10:25:54.205Z,20.94
2022-10-16T10:26:54.209Z,20.92
2022-10-16T10:27:54.207Z,20.95
2022-10-16T10:28:54.227Z,20.95
2022-10-16T10:29:54.210Z,20.92
2022-10-16T10:30:54.202Z,20.92
2022-10-16T10:31:54.211Z,20.98
2022-10-16T10:32:54.222Z,20.98
2022-10-16T10:33:54.218Z,20.99
2022-10-16T10:34:56.625Z,20.99
2022-10-16T10:35:54.239Z,20.98
2022-10-16T10:36:54.254Z,21.03
2022-10-16T10:37:54.254Z,20.95
2022-10-16T10:38:54.245Z,20.94
2022-10-16T10:39:54.246Z,20.92
2022-10-16T10:40:54.252Z,20.89
2022-10-16T10:41:54.249Z,20.99
2022-10-16T10:42:54.248Z,20.99
2022-10-16T10:43:54.269Z,21.12
2022-10-16T10:44:54.262Z,21.16
2022-10-16T10:45:54.264Z,21.24
2022-10-16T10:46:54.262Z,21.29
2022-10-16T10:47:54.302Z,21.44
2022-10-16T10:48:54.271Z,21.37
2022-10-16T10:49:54.274Z,21.56
2022-10-16T10:50:54.290Z,21.75
2022-10-16T10:51:54.283Z,21.92
2022-10-16T10:52:54.301Z,21.98
2022-10-16T10:53:54.310Z,22.21
2022-10-16T10:54:54.303Z,22.20
2022-10-16T10:55:54.316Z,22.51
2022-10-16T10:56:54.322Z,22.58
2022-10-16T10:57:54.310Z,22.83
2022-10-16T10:58:54.332Z,22.76
2022-10-16T10:59:54.318Z,22.72
2022-10-16T11:00:54.323Z,22.54
2022-10-16T11:01:54.348Z,22.42
2022-10-16T11:02:54.353Z,22.35
2022-10-16T11:03:58.331Z,22.30
2022-10-16T11:04:54.354Z,22.28
2022-10-16T11:05:54.356Z,22.20
2022-10-16T11:06:54.350Z,22.25
2022-10-16T11:07:54.366Z,22.51
2022-10-16T11:08:57.574Z,22.75
2022-10-16T11:09:54.378Z,23.12
2022-10-16T11:10:54.392Z,23.54
2022-10-16T11:11:54.374Z,23.98
2022-10-16T11:12:54.385Z,24.37
2022-10-16T11:13:54.392Z,24.60
2022-10-16T11:14:54.402Z,24.65
2022-10-16T11:15:54.424Z,24.39
2022-10-16T11:16:54.410Z,24.42
2022-10-16T11:17:54.416Z,24.65
2022-10-16T11:18:54.412Z,24.69
2022-10-16T11:19:54.446Z,24.96
2022-10-16T11:20:54.421Z,25.05
2022-10-16T11:21:54.498Z,24.98
2022-10-16T11:22:54.509Z,24.61
2022-10-16T11:23:54.534Z,24.37
2022-10-16T11:24:54.608Z,24.12
2022-10-16T11:25:54.490Z,23.72
2022-10-16T11:26:54.518Z,23.48
2022-10-16T11:27:54.529Z,23.33
2022-10-16T11:28:54.543Z,23.12
2022-10-16T11:29:54.498Z,23.13
2022-10-16T11:30:54.503Z,22.97
2022-10-16T11:31:54.491Z,22.90
2022-10-16T11:32:54.498Z,22.90
2022-10-16T11:33:54.549Z,22.72
2022-10-16T11:34:54.511Z,22.54
2022-10-16T11:35:54.555Z,22.52
2022-10-16T11:36:54.516Z,22.46
2022-10-16T11:37:54.525Z,22.47
2022-10-16T11:38:54.535Z,22.54
2022-10-16T11:39:54.563Z,22.58
2022-10-16T11:40:54.568Z,22.52
2022-10-16T11:41:54.551Z,22.65
2022-10-16T11:42:54.544Z,22.70
2022-10-16T11:43:54.565Z,22.88
2022-10-16T11:44:54.573Z,22.86
2022-10-16T11:45:54.583Z,23.04
2022-10-16T11:47:00.650Z,23.16
2022-10-16T11:47:59.284Z,23.46
2022-10-16T11:48:54.601Z,23.60
2022-10-16T11:49:54.589Z,23.95
2022-10-16T11:50:54.588Z,24.02
2022-10-16T11:51:54.622Z,23.93
2022-10-16T11:52:54.600Z,23.83
2022-10-16T11:53:54.617Z,23.88
2022-10-16T11:54:54.701Z,23.76
2022-10-16T11:55:54.617Z,23.76
2022-10-16T11:56:54.625Z,23.63
2022-10-16T11:57:54.633Z,23.40
2022-10-16T11:58:54.641Z,23.31
2022-10-16T11:59:54.645Z,23.19
2022-10-16T12:00:54.659Z,23.09
2022-10-16T12:01:54.661Z,23.09
2022-10-16T12:02:54.689Z,23.04
2022-10-16T12:03:54.713Z,23.07
2022-10-16T12:04:54.653Z,23.09
2022-10-16T12:05:55.817Z,23.23
2022-10-16T12:06:54.672Z,23.04
2022-10-16T12:07:54.666Z,23.07
2022-10-16T12:08:54.713Z,23.00
2022-10-16T12:09:54.722Z,23.01
2022-10-16T12:10:54.730Z,22.92
2022-10-16T12:11:54.714Z,22.83
2022-10-16T12:12:54.764Z,22.73
2022-10-16T12:13:54.699Z,22.61
2022-10-16T12:15:15.906Z,22.57
2022-10-16T12:15:59.156Z,22.57
2022-10-16T12:16:54.717Z,22.54
2022-10-16T12:17:54.733Z,22.43
2022-10-16T12:18:54.731Z,22.55
2022-10-16T12:19:54.768Z,22.51
2022-10-16T12:20:54.734Z,22.43
2022-10-16T12:21:54.741Z,22.55
2022-10-16T12:22:54.777Z,22.57
2022-10-16T12:23:54.748Z,22.57
2022-10-16T12:24:54.753Z,22.65
2022-10-16T12:25:54.752Z,22.79
2022-10-16T12:26:54.749Z,22.75
2022-10-16T12:27:54.756Z,22.75
2022-10-16T12:28:54.901Z,22.61
2022-10-16T12:29:54.828Z,22.46
2022-10-16T12:30:54.772Z,22.45
2022-10-16T12:31:58.223Z,22.39
2022-10-16T12:32:55.063Z,22.27
2022-10-16T12:33:54.802Z,22.27
2022-10-16T12:34:54.794Z,22.12
2022-10-16T12:35:54.806Z,22.03
2022-10-16T12:36:54.801Z,22.27
2022-10-16T12:37:54.800Z,22.40
2022-10-16T12:38:54.820Z,22.31
2022-10-16T12:39:54.836Z,22.27
2022-10-16T12:40:54.828Z,22.25
2022-10-16T12:41:55.175Z,22.33
2022-10-16T12:42:54.839Z,22.21
2022-10-16T12:43:54.836Z,22.35
2022-10-16T12:44:54.868Z,22.28
2022-10-16T12:45:54.851Z,22.27
2022-10-16T12:46:55.523Z,22.12
2022-10-16T12:47:54.965Z,22.09
2022-10-16T12:49:06.629Z,21.92
2022-10-16T12:49:55.521Z,21.92
2022-10-16T12:50:54.872Z,21.83
2022-10-16T12:51:54.930Z,21.83
2022-10-16T12:52:54.909Z,21.67
2022-10-16T12:53:54.877Z,21.68
2022-10-16T12:54:54.885Z,21.62
2022-10-16T12:55:54.907Z,21.59
2022-10-16T12:56:54.967Z,21.53
2022-10-16T12:57:54.903Z,21.59
2022-10-16T12:58:54.917Z,21.53
2022-10-16T12:59:54.903Z,21.54
2022-10-16T13:00:54.936Z,21.56
2022-10-16T13:01:54.943Z,21.38
2022-10-16T13:02:55.527Z,21.37
2022-10-16T13:03:55.129Z,21.49
2022-10-16T13:04:54.915Z,21.37
2022-10-16T13:05:54.924Z,21.44
2022-10-16T13:06:54.923Z,21.58
2022-10-16T13:07:54.933Z,21.59
2022-10-16T13:08:54.922Z,21.54
2022-10-16T13:09:54.936Z,21.62
2022-10-16T13:10:54.959Z,21.59
2022-10-16T13:11:54.935Z,21.56
2022-10-16T13:12:54.950Z,21.59
2022-10-16T13:13:55.017Z,21.56
2022-10-16T13:14:54.953Z,21.53
2022-10-16T13:15:54.965Z,21.52
2022-10-16T13:16:54.957Z,21.54
2022-10-16T13:17:54.962Z,21.53
2022-10-16T13:18:54.985Z,21.37
2022-10-16T13:19:55.072Z,21.38
2022-10-16T13:20:54.970Z,21.37
2022-10-16T13:21:54.975Z,21.38
2022-10-16T13:22:57.378Z,21.46
2022-10-16T13:23:55.143Z,21.46
2022-10-16T13:24:55.078Z,21.47
2022-10-16T13:25:54.993Z,21.44
2022-10-16T13:26:54.994Z,21.34
2022-10-16T13:27:55.012Z,21.40
2022-10-16T13:28:55.039Z,21.54
2022-10-16T13:29:55.016Z,21.69
2022-10-16T13:30:55.035Z,21.74
2022-10-16T13:31:55.031Z,21.82
2022-10-16T13:32:55.031Z,21.82
2022-10-16T13:33:55.023Z,21.74
2022-10-16T13:34:55.085Z,21.84
2022-10-16T13:35:55.029Z,21.79
2022-10-16T13:36:55.077Z,21.79
2022-10-16T13:37:55.044Z,21.74
2022-10-16T13:38:55.049Z,21.71
2022-10-16T13:39:55.076Z,21.82